sensor_id;sensor_type;location;lat;lon;timestamp;temperature;humidity
19586;DHT22;9939;49.246;9.106;2023-01-29T00:01:03;-0.30;99.90
19586;DHT22;9939;49.246;9.106;2023-01-29T00:03:30;-0.50;99.90
19586;DHT22;9939;49.246;9.106;2023-01-29T00:05:57;-0.60;99.90
19586;DHT22;9939;49.246;9.106;2023-01-29T00:08:24;-0.70;99.90
19586;DHT22;9939;49.246;9.106;2023-01-29T00:10:51;-0.80;99.90
19586;DHT22;9939;49.246;9.106;2023-01-29T00:13:18;-0.90;99.90
19586;DHT22;9939;49.246;9.106;2023-01-29T00:15:54;-0.90;99.90
19586;DHT22;9939;49.246;9.106;2023-01-29T00:18:22;-0.90;99.90
19586;DHT22;9939;49.246;9.106;2023-01-29T00:20:49;-1.00;99.90
19586;DHT22;9939;49.246;9.106;2023-01-29T00:23:16;-1.00;99.90
19586;DHT22;9939;49.246;9.106;2023-01-29T00:25:43;-0.80;99.90
19586;DHT22;9939;49.246;9.106;2023-01-29T00:28:10;-0.70;99.90
19586;DHT22;9939;49.246;9.106;2023-01-29T00:30:37;-0.50;99.90
19586;DHT22;9939;49.246;9.106;2023-01-29T00:33:04;-0.50;99.90
19586;DHT22;9939;49.246;9.106;2023-01-29T00:35:31;-0.60;99.90
19586;DHT22;9939;49.246;9.106;2023-01-29T00:37:58;-0.70;99.90
19586;DHT22;9939;49.246;9.106;2023-01-29T00:40:25;-0.70;99.90
19586;DHT22;9939;49.246;9.106;2023-01-29T00:42:52;-0.80;99.90
19586;DHT22;9939;49.246;9.106;2023-01-29T00:45:38;-0.70;99.90
19586;DHT22;9939;49.246;9.106;2023-01-29T00:48:05;-0.70;99.90
19586;DHT22;9939;49.246;9.106;2023-01-29T00:50:32;-0.70;99.90
19586;DHT22;9939;49.246;9.106;2023-01-29T00:52:59;-0.70;99.90
19586;DHT22;9939;49.246;9.106;2023-01-29T00:55:25;-0.60;99.90
19586;DHT22;9939;49.246;9.106;2023-01-29T00:57:52;-0.60;99.90
19586;DHT22;9939;49.246;9.106;2023-01-29T01:00:20;-0.60;99.90
19586;DHT22;9939;49.246;9.106;2023-01-29T01:02:46;-0.60;99.90
19586;DHT22;9939;49.246;9.106;2023-01-29T01:05:32;-0.60;99.90
19586;DHT22;9939;49.246;9.106;2023-01-29T01:07:59;-0.60;99.90
19586;DHT22;9939;49.246;9.106;2023-01-29T01:12:57;-0.60;99.90
19586;DHT22;9939;49.246;9.106;2023-01-29T01:15:25;-0.70;99.90
19586;DHT22;9939;49.246;9.106;2023-01-29T01:17:54;-0.60;99.90
19586;DHT22;9939;49.246;9.106;2023-01-29T01:20:21;-0.70;99.90
19586;DHT22;9939;49.246;9.106;2023-01-29T01:22:50;-0.70;99.90
19586;DHT22;9939;49.246;9.106;2023-01-29T01:25:17;-0.70;99.90
19586;DHT22;9939;49.246;9.106;2023-01-29T01:27:44;-0.70;99.90
19586;DHT22;9939;49.246;9.106;2023-01-29T01:30:12;-0.70;99.90
19586;DHT22;9939;49.246;9.106;2023-01-29T01:32:40;-0.80;99.90
19586;DHT22;9939;49.246;9.106;2023-01-29T01:35:08;-0.80;99.90
19586;DHT22;9939;49.246;9.106;2023-01-29T01:37:36;-0.90;99.90
19586;DHT22;9939;49.246;9.106;2023-01-29T01:40:04;-0.80;99.90
19586;DHT22;9939;49.246;9.106;2023-01-29T01:42:38;-0.70;99.90
19586;DHT22;9939;49.246;9.106;2023-01-29T01:45:07;-0.70;99.90
19586;DHT22;9939;49.246;9.106;2023-01-29T01:50:10;-0.80;99.90
19586;DHT22;9939;49.246;9.106;2023-01-29T01:52:40;-0.80;99.90
19586;DHT22;9939;49.246;9.106;2023-01-29T01:55:08;-0.90;99.90
19586;DHT22;9939;49.246;9.106;2023-01-29T01:57:38;-0.90;99.90
19586;DHT22;9939;49.246;9.106;2023-01-29T02:00:09;-0.90;99.90
19586;DHT22;9939;49.246;9.106;2023-01-29T02:02:41;-0.90;99.90
19586;DHT22;9939;49.246;9.106;2023-01-29T02:05:28;-1.00;99.90
19586;DHT22;9939;49.246;9.106;2023-01-29T02:08:16;-1.00;99.90
19586;DHT22;9939;49.246;9.106;2023-01-29T02:11:06;-0.90;99.90
19586;DHT22;9939;49.246;9.106;2023-01-29T02:13:32;-0.80;99.90
19586;DHT22;9939;49.246;9.106;2023-01-29T02:15:59;-0.80;99.90
19586;DHT22;9939;49.246;9.106;2023-01-29T02:18:26;-0.70;99.90
19586;DHT22;9939;49.246;9.106;2023-01-29T02:20:59;-0.70;99.90
19586;DHT22;9939;49.246;9.106;2023-01-29T02:31:28;-0.90;99.90
19586;DHT22;9939;49.246;9.106;2023-01-29T02:36:44;-0.90;99.90
19586;DHT22;9939;49.246;9.106;2023-01-29T02:49:45;-0.70;99.90
19586;DHT22;9939;49.246;9.106;2023-01-29T02:54:41;-0.70;99.90
19586;DHT22;9939;49.246;9.106;2023-01-29T02:57:20;-0.80;99.90
19586;DHT22;9939;49.246;9.106;2023-01-29T03:02:18;-0.80;99.90
19586;DHT22;9939;49.246;9.106;2023-01-29T03:04:48;-0.80;99.90
19586;DHT22;9939;49.246;9.106;2023-01-29T03:07:18;-0.80;99.90
19586;DHT22;9939;49.246;9.106;2023-01-29T03:10:18;-0.70;99.90
19586;DHT22;9939;49.246;9.106;2023-01-29T03:12:48;-0.60;99.90
19586;DHT22;9939;49.246;9.106;2023-01-29T03:15:19;-0.70;99.90
19586;DHT22;9939;49.246;9.106;2023-01-29T03:18:11;-0.80;99.90
19586;DHT22;9939;49.246;9.106;2023-01-29T03:20:51;-1.00;99.90
19586;DHT22;9939;49.246;9.106;2023-01-29T03:23:22;-1.00;99.90
19586;DHT22;9939;49.246;9.106;2023-01-29T03:25:53;-1.00;99.90
19586;DHT22;9939;49.246;9.106;2023-01-29T03:28:40;-1.00;99.90
19586;DHT22;9939;49.246;9.106;2023-01-29T03:31:26;-1.00;99.90
19586;DHT22;9939;49.246;9.106;2023-01-29T03:34:13;-1.00;99.90
19586;DHT22;9939;49.246;9.106;2023-01-29T03:36:52;-1.10;99.90
19586;DHT22;9939;49.246;9.106;2023-01-29T03:39:22;-1.20;99.90
19586;DHT22;9939;49.246;9.106;2023-01-29T03:42:12;-1.00;99.90
19586;DHT22;9939;49.246;9.106;2023-01-29T03:47:19;-1.30;99.90
19586;DHT22;9939;49.246;9.106;2023-01-29T03:55:02;-1.30;99.90
19586;DHT22;9939;49.246;9.106;2023-01-29T03:57:36;-1.30;99.90
19586;DHT22;9939;49.246;9.106;2023-01-29T04:00:30;-1.30;99.90
19586;DHT22;9939;49.246;9.106;2023-01-29T04:05:46;-1.20;99.90
19586;DHT22;9939;49.246;9.106;2023-01-29T04:08:30;-1.20;99.90
19586;DHT22;9939;49.246;9.106;2023-01-29T04:11:00;-1.20;99.90
19586;DHT22;9939;49.246;9.106;2023-01-29T04:13:29;-1.30;99.90
19586;DHT22;9939;49.246;9.106;2023-01-29T04:16:00;-1.40;99.90
19586;DHT22;9939;49.246;9.106;2023-01-29T04:18:46;-1.50;99.90
19586;DHT22;9939;49.246;9.106;2023-01-29T04:21:15;-1.50;99.90
19586;DHT22;9939;49.246;9.106;2023-01-29T04:23:42;-1.40;99.90
19586;DHT22;9939;49.246;9.106;2023-01-29T04:29:01;-1.30;99.90
19586;DHT22;9939;49.246;9.106;2023-01-29T04:31:32;-1.30;99.90
19586;DHT22;9939;49.246;9.106;2023-01-29T04:34:14;-1.10;99.90
19586;DHT22;9939;49.246;9.106;2023-01-29T04:37:05;-1.20;99.90
19586;DHT22;9939;49.246;9.106;2023-01-29T04:42:09;-1.20;99.90
19586;DHT22;9939;49.246;9.106;2023-01-29T04:44:39;-1.30;99.90
19586;DHT22;9939;49.246;9.106;2023-01-29T04:52:51;-1.10;99.90
19586;DHT22;9939;49.246;9.106;2023-01-29T04:55:23;-0.90;99.90
19586;DHT22;9939;49.246;9.106;2023-01-29T04:57:53;-1.10;99.90
19586;DHT22;9939;49.246;9.106;2023-01-29T05:00:26;-1.00;99.90
19586;DHT22;9939;49.246;9.106;2023-01-29T05:02:55;-1.00;99.90
19586;DHT22;9939;49.246;9.106;2023-01-29T05:05:22;-0.90;99.90
19586;DHT22;9939;49.246;9.106;2023-01-29T05:07:48;-1.00;99.90
19586;DHT22;9939;49.246;9.106;2023-01-29T05:10:16;-1.00;99.90
19586;DHT22;9939;49.246;9.106;2023-01-29T05:12:46;-1.10;99.90
19586;DHT22;9939;49.246;9.106;2023-01-29T05:15:16;-1.00;99.90
19586;DHT22;9939;49.246;9.106;2023-01-29T05:17:44;-1.10;99.90
19586;DHT22;9939;49.246;9.106;2023-01-29T05:20:12;-1.10;99.90
19586;DHT22;9939;49.246;9.106;2023-01-29T05:22:40;-1.00;99.90
19586;DHT22;9939;49.246;9.106;2023-01-29T05:25:18;-1.00;99.90
19586;DHT22;9939;49.246;9.106;2023-01-29T05:27:46;-1.00;99.90
19586;DHT22;9939;49.246;9.106;2023-01-29T05:30:30;-1.10;99.90
19586;DHT22;9939;49.246;9.106;2023-01-29T05:32:57;-1.00;99.90
19586;DHT22;9939;49.246;9.106;2023-01-29T05:35:24;-0.80;99.90
19586;DHT22;9939;49.246;9.106;2023-01-29T05:37:51;-0.60;99.90
19586;DHT22;9939;49.246;9.106;2023-01-29T05:40:18;-0.70;99.90
19586;DHT22;9939;49.246;9.106;2023-01-29T05:42:45;-0.80;99.90
19586;DHT22;9939;49.246;9.106;2023-01-29T05:45:12;-1.00;99.90
19586;DHT22;9939;49.246;9.106;2023-01-29T05:47:39;-1.00;99.90
19586;DHT22;9939;49.246;9.106;2023-01-29T05:50:06;-1.10;99.90
19586;DHT22;9939;49.246;9.106;2023-01-29T05:52:33;-1.00;99.90
19586;DHT22;9939;49.246;9.106;2023-01-29T05:55:00;-1.00;99.90
19586;DHT22;9939;49.246;9.106;2023-01-29T05:57:27;-0.90;99.90
19586;DHT22;9939;49.246;9.106;2023-01-29T05:59:54;-0.90;99.90
19586;DHT22;9939;49.246;9.106;2023-01-29T06:02:20;-1.00;99.90
19586;DHT22;9939;49.246;9.106;2023-01-29T06:04:49;-1.00;99.90
19586;DHT22;9939;49.246;9.106;2023-01-29T06:07:16;-1.10;99.90
19586;DHT22;9939;49.246;9.106;2023-01-29T06:09:43;-1.00;99.90
19586;DHT22;9939;49.246;9.106;2023-01-29T06:12:10;-0.90;99.90
19586;DHT22;9939;49.246;9.106;2023-01-29T06:14:37;-1.00;99.90
19586;DHT22;9939;49.246;9.106;2023-01-29T06:17:03;-1.00;99.90
19586;DHT22;9939;49.246;9.106;2023-01-29T06:19:30;-1.10;99.90
19586;DHT22;9939;49.246;9.106;2023-01-29T06:21:57;-1.00;99.90
19586;DHT22;9939;49.246;9.106;2023-01-29T06:24:24;-1.10;99.90
19586;DHT22;9939;49.246;9.106;2023-01-29T06:26:51;-1.10;99.90
19586;DHT22;9939;49.246;9.106;2023-01-29T06:29:18;-1.20;99.90
19586;DHT22;9939;49.246;9.106;2023-01-29T06:31:45;-1.20;99.90
19586;DHT22;9939;49.246;9.106;2023-01-29T06:34:11;-1.20;99.90
19586;DHT22;9939;49.246;9.106;2023-01-29T06:36:38;-1.20;99.90
19586;DHT22;9939;49.246;9.106;2023-01-29T06:39:07;-1.20;99.90
19586;DHT22;9939;49.246;9.106;2023-01-29T06:41:34;-1.00;99.90
19586;DHT22;9939;49.246;9.106;2023-01-29T06:44:01;-1.10;99.90
19586;DHT22;9939;49.246;9.106;2023-01-29T06:46:28;-1.20;99.90
19586;DHT22;9939;49.246;9.106;2023-01-29T06:48:56;-1.20;99.90
19586;DHT22;9939;49.246;9.106;2023-01-29T06:51:23;-1.30;99.90
19586;DHT22;9939;49.246;9.106;2023-01-29T06:53:50;-1.30;99.90
19586;DHT22;9939;49.246;9.106;2023-01-29T06:56:17;-1.20;99.90
19586;DHT22;9939;49.246;9.106;2023-01-29T06:58:44;-1.20;99.90
19586;DHT22;9939;49.246;9.106;2023-01-29T07:01:11;-1.20;99.90
19586;DHT22;9939;49.246;9.106;2023-01-29T07:03:48;-1.10;99.90
19586;DHT22;9939;49.246;9.106;2023-01-29T07:06:15;-1.00;99.90
19586;DHT22;9939;49.246;9.106;2023-01-29T07:08:42;-1.00;99.90
19586;DHT22;9939;49.246;9.106;2023-01-29T07:11:09;-0.90;99.90
19586;DHT22;9939;49.246;9.106;2023-01-29T07:13:36;-0.90;99.90
19586;DHT22;9939;49.246;9.106;2023-01-29T07:16:03;-0.90;99.90
19586;DHT22;9939;49.246;9.106;2023-01-29T07:18:32;-0.90;99.90
19586;DHT22;9939;49.246;9.106;2023-01-29T07:20:59;-0.90;99.90
19586;DHT22;9939;49.246;9.106;2023-01-29T07:23:29;-0.90;99.90
19586;DHT22;9939;49.246;9.106;2023-01-29T07:25:58;-0.80;99.90
19586;DHT22;9939;49.246;9.106;2023-01-29T07:28:25;-0.70;99.90
19586;DHT22;9939;49.246;9.106;2023-01-29T07:30:58;-0.70;99.90
19586;DHT22;9939;49.246;9.106;2023-01-29T07:33:26;-0.60;99.90
19586;DHT22;9939;49.246;9.106;2023-01-29T07:35:52;-0.50;99.90
19586;DHT22;9939;49.246;9.106;2023-01-29T07:38:19;-0.30;99.90
19586;DHT22;9939;49.246;9.106;2023-01-29T07:40:46;-0.30;99.90
19586;DHT22;9939;49.246;9.106;2023-01-29T07:43:13;-0.40;99.90
19586;DHT22;9939;49.246;9.106;2023-01-29T07:45:40;-0.40;99.90
19586;DHT22;9939;49.246;9.106;2023-01-29T07:48:08;-0.30;99.90
19586;DHT22;9939;49.246;9.106;2023-01-29T07:50:36;-0.40;99.90
19586;DHT22;9939;49.246;9.106;2023-01-29T07:53:03;-0.50;99.90
19586;DHT22;9939;49.246;9.106;2023-01-29T07:55:30;-0.40;99.90
19586;DHT22;9939;49.246;9.106;2023-01-29T07:57:57;-0.50;99.90
19586;DHT22;9939;49.246;9.106;2023-01-29T08:00:25;-0.50;99.90
19586;DHT22;9939;49.246;9.106;2023-01-29T08:02:52;-0.30;99.90
19586;DHT22;9939;49.246;9.106;2023-01-29T08:05:19;-0.10;99.90
19586;DHT22;9939;49.246;9.106;2023-01-29T08:07:51;-0.10;99.90
19586;DHT22;9939;49.246;9.106;2023-01-29T08:10:32;-0.10;99.90
19586;DHT22;9939;49.246;9.106;2023-01-29T08:13:00;0.00;99.90
19586;DHT22;9939;49.246;9.106;2023-01-29T08:15:27;0.00;99.90
19586;DHT22;9939;49.246;9.106;2023-01-29T08:17:54;-0.10;99.90
19586;DHT22;9939;49.246;9.106;2023-01-29T08:20:41;0.00;99.90
19586;DHT22;9939;49.246;9.106;2023-01-29T08:23:10;0.10;99.90
19586;DHT22;9939;49.246;9.106;2023-01-29T08:25:37;0.20;99.90
19586;DHT22;9939;49.246;9.106;2023-01-29T08:28:04;0.30;99.90
19586;DHT22;9939;49.246;9.106;2023-01-29T08:30:32;0.40;99.90
19586;DHT22;9939;49.246;9.106;2023-01-29T08:32:59;0.60;99.90
19586;DHT22;9939;49.246;9.106;2023-01-29T08:35:26;0.90;99.90
19586;DHT22;9939;49.246;9.106;2023-01-29T08:37:53;1.20;99.90
19586;DHT22;9939;49.246;9.106;2023-01-29T08:40:20;1.30;99.90
19586;DHT22;9939;49.246;9.106;2023-01-29T08:42:47;1.70;99.90
19586;DHT22;9939;49.246;9.106;2023-01-29T08:45:14;1.80;99.90
19586;DHT22;9939;49.246;9.106;2023-01-29T08:47:45;1.90;99.90
19586;DHT22;9939;49.246;9.106;2023-01-29T08:50:12;1.80;99.90
19586;DHT22;9939;49.246;9.106;2023-01-29T08:52:39;1.80;99.90
19586;DHT22;9939;49.246;9.106;2023-01-29T08:55:06;2.50;99.90
19586;DHT22;9939;49.246;9.106;2023-01-29T08:57:33;2.90;99.90
19586;DHT22;9939;49.246;9.106;2023-01-29T09:00:00;3.40;99.90
19586;DHT22;9939;49.246;9.106;2023-01-29T09:02:27;4.00;99.90
19586;DHT22;9939;49.246;9.106;2023-01-29T09:04:54;5.70;99.90
19586;DHT22;9939;49.246;9.106;2023-01-29T09:07:21;5.70;99.90
19586;DHT22;9939;49.246;9.106;2023-01-29T09:09:48;6.60;99.90
19586;DHT22;9939;49.246;9.106;2023-01-29T09:12:15;6.30;99.90
19586;DHT22;9939;49.246;9.106;2023-01-29T09:14:41;6.40;99.90
19586;DHT22;9939;49.246;9.106;2023-01-29T09:17:08;7.70;99.90
19586;DHT22;9939;49.246;9.106;2023-01-29T09:19:35;8.80;99.90
19586;DHT22;9939;49.246;9.106;2023-01-29T09:22:02;9.40;99.90
19586;DHT22;9939;49.246;9.106;2023-01-29T09:24:29;9.00;99.90
19586;DHT22;9939;49.246;9.106;2023-01-29T09:26:56;8.70;99.90
19586;DHT22;9939;49.246;9.106;2023-01-29T09:29:23;10.30;99.90
19586;DHT22;9939;49.246;9.106;2023-01-29T09:31:49;10.40;99.90
19586;DHT22;9939;49.246;9.106;2023-01-29T09:34:16;10.40;99.90
19586;DHT22;9939;49.246;9.106;2023-01-29T09:36:43;10.80;99.90
19586;DHT22;9939;49.246;9.106;2023-01-29T09:39:10;10.60;99.90
19586;DHT22;9939;49.246;9.106;2023-01-29T09:44:09;11.10;99.90
19586;DHT22;9939;49.246;9.106;2023-01-29T09:46:42;11.00;99.90
19586;DHT22;9939;49.246;9.106;2023-01-29T09:49:11;9.90;99.90
19586;DHT22;9939;49.246;9.106;2023-01-29T09:51:42;9.20;99.90
19586;DHT22;9939;49.246;9.106;2023-01-29T09:54:12;9.40;99.90
19586;DHT22;9939;49.246;9.106;2023-01-29T09:56:42;9.20;99.90
19586;DHT22;9939;49.246;9.106;2023-01-29T09:59:10;8.50;99.90
19586;DHT22;9939;49.246;9.106;2023-01-29T10:06:47;6.60;99.90
19586;DHT22;9939;49.246;9.106;2023-01-29T10:14:27;5.90;99.90
19586;DHT22;9939;49.246;9.106;2023-01-29T10:19:51;5.00;99.90
19586;DHT22;9939;49.246;9.106;2023-01-29T10:24:56;5.70;99.90
19586;DHT22;9939;49.246;9.106;2023-01-29T10:27:31;5.20;99.90
19586;DHT22;9939;49.246;9.106;2023-01-29T10:29:58;4.80;99.90
19586;DHT22;9939;49.246;9.106;2023-01-29T10:32:26;4.90;99.90
19586;DHT22;9939;49.246;9.106;2023-01-29T10:34:59;4.60;99.90
19586;DHT22;9939;49.246;9.106;2023-01-29T10:37:40;4.30;99.90
19586;DHT22;9939;49.246;9.106;2023-01-29T10:40:28;4.10;99.90
19586;DHT22;9939;49.246;9.106;2023-01-29T10:43:03;3.80;99.90
19586;DHT22;9939;49.246;9.106;2023-01-29T10:58:40;3.40;99.90
19586;DHT22;9939;49.246;9.106;2023-01-29T11:01:11;3.40;99.90
19586;DHT22;9939;49.246;9.106;2023-01-29T11:03:38;3.20;99.90
19586;DHT22;9939;49.246;9.106;2023-01-29T11:06:16;3.00;99.90
19586;DHT22;9939;49.246;9.106;2023-01-29T11:08:47;3.40;99.90
19586;DHT22;9939;49.246;9.106;2023-01-29T11:11:17;3.50;99.90
19586;DHT22;9939;49.246;9.106;2023-01-29T11:13:54;4.20;99.90
19586;DHT22;9939;49.246;9.106;2023-01-29T11:16:23;4.50;99.90
19586;DHT22;9939;49.246;9.106;2023-01-29T11:18:57;5.50;99.90
19586;DHT22;9939;49.246;9.106;2023-01-29T11:21:24;5.50;99.90
19586;DHT22;9939;49.246;9.106;2023-01-29T11:24:10;5.80;99.90
19586;DHT22;9939;49.246;9.106;2023-01-29T11:26:39;5.90;99.90
19586;DHT22;9939;49.246;9.106;2023-01-29T11:29:28;5.50;99.90
19586;DHT22;9939;49.246;9.106;2023-01-29T11:31:56;6.20;99.90
19586;DHT22;9939;49.246;9.106;2023-01-29T11:34:24;6.40;99.90
19586;DHT22;9939;49.246;9.106;2023-01-29T11:36:57;6.40;99.90
19586;DHT22;9939;49.246;9.106;2023-01-29T11:39:24;6.10;99.90
19586;DHT22;9939;49.246;9.106;2023-01-29T11:41:58;5.40;99.90
19586;DHT22;9939;49.246;9.106;2023-01-29T11:46:56;5.30;99.90
19586;DHT22;9939;49.246;9.106;2023-01-29T11:49:29;5.00;99.90
19586;DHT22;9939;49.246;9.106;2023-01-29T11:51:59;4.70;99.90
19586;DHT22;9939;49.246;9.106;2023-01-29T11:54:29;5.10;99.90
19586;DHT22;9939;49.246;9.106;2023-01-29T11:56:56;5.40;99.90
19586;DHT22;9939;49.246;9.106;2023-01-29T11:59:42;6.10;99.90
19586;DHT22;9939;49.246;9.106;2023-01-29T12:02:19;7.00;99.90
19586;DHT22;9939;49.246;9.106;2023-01-29T12:04:48;7.40;99.90
19586;DHT22;9939;49.246;9.106;2023-01-29T12:07:16;7.70;99.90
19586;DHT22;9939;49.246;9.106;2023-01-29T12:09:47;7.30;99.90
19586;DHT22;9939;49.246;9.106;2023-01-29T12:12:17;6.90;99.90
19586;DHT22;9939;49.246;9.106;2023-01-29T12:14:55;6.40;99.90
19586;DHT22;9939;49.246;9.106;2023-01-29T12:17:27;5.60;99.90
19586;DHT22;9939;49.246;9.106;2023-01-29T12:19:58;5.90;99.90
19586;DHT22;9939;49.246;9.106;2023-01-29T12:22:31;6.10;99.90
19586;DHT22;9939;49.246;9.106;2023-01-29T12:30:22;6.30;99.90
19586;DHT22;9939;49.246;9.106;2023-01-29T12:35:27;6.20;99.90
19586;DHT22;9939;49.246;9.106;2023-01-29T12:38:05;6.40;99.90
19586;DHT22;9939;49.246;9.106;2023-01-29T12:40:38;6.50;99.90
19586;DHT22;9939;49.246;9.106;2023-01-29T12:43:10;6.30;99.90
19586;DHT22;9939;49.246;9.106;2023-01-29T12:45:38;5.80;99.90
19586;DHT22;9939;49.246;9.106;2023-01-29T12:48:08;5.40;99.90
19586;DHT22;9939;49.246;9.106;2023-01-29T12:50:36;5.00;99.90
19586;DHT22;9939;49.246;9.106;2023-01-29T12:55:58;4.60;99.90
19586;DHT22;9939;49.246;9.106;2023-01-29T12:58:34;5.30;99.90
19586;DHT22;9939;49.246;9.106;2023-01-29T13:01:04;6.00;99.90
19586;DHT22;9939;49.246;9.106;2023-01-29T13:06:13;5.70;99.90
19586;DHT22;9939;49.246;9.106;2023-01-29T13:08:43;5.60;99.90
19586;DHT22;9939;49.246;9.106;2023-01-29T13:11:32;4.90;99.90
19586;DHT22;9939;49.246;9.106;2023-01-29T13:14:00;4.80;99.90
19586;DHT22;9939;49.246;9.106;2023-01-29T13:16:32;5.00;99.90
19586;DHT22;9939;49.246;9.106;2023-01-29T13:19:02;5.20;99.90
19586;DHT22;9939;49.246;9.106;2023-01-29T13:21:35;5.70;99.90
19586;DHT22;9939;49.246;9.106;2023-01-29T13:24:20;6.20;99.90
19586;DHT22;9939;49.246;9.106;2023-01-29T13:26:47;6.10;99.90
19586;DHT22;9939;49.246;9.106;2023-01-29T13:29:27;5.90;99.90
19586;DHT22;9939;49.246;9.106;2023-01-29T13:31:56;5.80;99.90
19586;DHT22;9939;49.246;9.106;2023-01-29T13:34:24;5.70;99.90
19586;DHT22;9939;49.246;9.106;2023-01-29T13:36:52;6.00;99.90
19586;DHT22;9939;49.246;9.106;2023-01-29T13:39:24;5.70;99.90
19586;DHT22;9939;49.246;9.106;2023-01-29T13:41:52;5.30;99.90
19586;DHT22;9939;49.246;9.106;2023-01-29T13:44:24;5.10;99.90
19586;DHT22;9939;49.246;9.106;2023-01-29T13:47:03;4.90;99.90
19586;DHT22;9939;49.246;9.106;2023-01-29T13:49:38;4.70;99.90
19586;DHT22;9939;49.246;9.106;2023-01-29T13:52:15;4.70;99.90
19586;DHT22;9939;49.246;9.106;2023-01-29T13:54:49;4.50;99.90
19586;DHT22;9939;49.246;9.106;2023-01-29T13:57:35;4.50;99.90
19586;DHT22;9939;49.246;9.106;2023-01-29T14:00:03;4.60;99.90
19586;DHT22;9939;49.246;9.106;2023-01-29T14:02:30;4.50;99.90
19586;DHT22;9939;49.246;9.106;2023-01-29T14:07:47;3.90;99.90
19586;DHT22;9939;49.246;9.106;2023-01-29T14:10:16;3.60;99.90
19586;DHT22;9939;49.246;9.106;2023-01-29T14:12:44;3.60;99.90
19586;DHT22;9939;49.246;9.106;2023-01-29T14:17:54;3.70;99.90
19586;DHT22;9939;49.246;9.106;2023-01-29T14:20:37;3.70;99.90
19586;DHT22;9939;49.246;9.106;2023-01-29T14:23:55;3.80;99.90
19586;DHT22;9939;49.246;9.106;2023-01-29T14:26:04;3.70;99.90
19586;DHT22;9939;49.246;9.106;2023-01-29T14:28:32;3.70;99.90
19586;DHT22;9939;49.246;9.106;2023-01-29T14:30:59;3.70;99.90
19586;DHT22;9939;49.246;9.106;2023-01-29T14:33:37;3.50;99.90
19586;DHT22;9939;49.246;9.106;2023-01-29T14:36:06;3.30;99.90
19586;DHT22;9939;49.246;9.106;2023-01-29T14:38:35;3.10;99.90
19586;DHT22;9939;49.246;9.106;2023-01-29T14:43:44;3.10;99.90
19586;DHT22;9939;49.246;9.106;2023-01-29T14:48:57;3.30;99.90
19586;DHT22;9939;49.246;9.106;2023-01-29T14:51:24;3.70;99.90
19586;DHT22;9939;49.246;9.106;2023-01-29T15:01:47;3.30;99.90
19586;DHT22;9939;49.246;9.106;2023-01-29T15:04:22;3.20;99.90
19586;DHT22;9939;49.246;9.106;2023-01-29T15:07:34;3.20;99.90
19586;DHT22;9939;49.246;9.106;2023-01-29T15:09:44;3.20;99.90
19586;DHT22;9939;49.246;9.106;2023-01-29T15:14:56;2.70;99.90
19586;DHT22;9939;49.246;9.106;2023-01-29T15:20:24;2.40;99.90
19586;DHT22;9939;49.246;9.106;2023-01-29T15:22:51;2.50;99.90
19586;DHT22;9939;49.246;9.106;2023-01-29T15:25:18;2.40;99.90
19586;DHT22;9939;49.246;9.106;2023-01-29T15:27:47;2.30;99.90
19586;DHT22;9939;49.246;9.106;2023-01-29T15:30:15;2.30;99.90
19586;DHT22;9939;49.246;9.106;2023-01-29T15:32:43;2.20;99.90
19586;DHT22;9939;49.246;9.106;2023-01-29T15:35:17;2.10;99.90
19586;DHT22;9939;49.246;9.106;2023-01-29T15:37:56;2.00;99.90
19586;DHT22;9939;49.246;9.106;2023-01-29T15:40:23;1.90;99.90
19586;DHT22;9939;49.246;9.106;2023-01-29T15:42:51;1.70;99.90
19586;DHT22;9939;49.246;9.106;2023-01-29T15:45:30;1.60;99.90
19586;DHT22;9939;49.246;9.106;2023-01-29T15:48:02;1.60;99.90
19586;DHT22;9939;49.246;9.106;2023-01-29T15:50:30;1.50;99.90
19586;DHT22;9939;49.246;9.106;2023-01-29T15:52:59;1.40;99.90
19586;DHT22;9939;49.246;9.106;2023-01-29T15:55:26;1.30;99.90
19586;DHT22;9939;49.246;9.106;2023-01-29T15:57:53;1.20;99.90
19586;DHT22;9939;49.246;9.106;2023-01-29T16:02:47;1.10;99.90
19586;DHT22;9939;49.246;9.106;2023-01-29T16:05:15;1.10;99.90
19586;DHT22;9939;49.246;9.106;2023-01-29T16:07:43;1.00;99.90
19586;DHT22;9939;49.246;9.106;2023-01-29T16:10:13;0.70;99.90
19586;DHT22;9939;49.246;9.106;2023-01-29T16:12:41;0.60;99.90
19586;DHT22;9939;49.246;9.106;2023-01-29T16:15:14;0.50;99.90
19586;DHT22;9939;49.246;9.106;2023-01-29T16:17:44;0.40;99.90
19586;DHT22;9939;49.246;9.106;2023-01-29T16:23:08;0.30;99.90
19586;DHT22;9939;49.246;9.106;2023-01-29T16:25:41;0.20;99.90
19586;DHT22;9939;49.246;9.106;2023-01-29T16:28:08;0.00;99.90
19586;DHT22;9939;49.246;9.106;2023-01-29T16:30:37;-0.20;99.90
19586;DHT22;9939;49.246;9.106;2023-01-29T16:33:05;-0.20;99.90
19586;DHT22;9939;49.246;9.106;2023-01-29T16:35:32;-0.30;99.90
19586;DHT22;9939;49.246;9.106;2023-01-29T16:38:00;-0.20;99.90
19586;DHT22;9939;49.246;9.106;2023-01-29T16:40:33;-0.40;99.90
19586;DHT22;9939;49.246;9.106;2023-01-29T16:45:54;-0.50;99.90
19586;DHT22;9939;49.246;9.106;2023-01-29T16:48:32;-0.60;99.90
19586;DHT22;9939;49.246;9.106;2023-01-29T16:51:10;-0.60;99.90
19586;DHT22;9939;49.246;9.106;2023-01-29T16:53:38;-0.70;99.90
19586;DHT22;9939;49.246;9.106;2023-01-29T16:56:06;-0.70;99.90
19586;DHT22;9939;49.246;9.106;2023-01-29T16:58:33;-0.70;99.90
19586;DHT22;9939;49.246;9.106;2023-01-29T17:01:01;-0.70;99.90
19586;DHT22;9939;49.246;9.106;2023-01-29T17:03:29;-0.80;99.90
19586;DHT22;9939;49.246;9.106;2023-01-29T17:05:57;-0.70;99.90
19586;DHT22;9939;49.246;9.106;2023-01-29T17:08:25;-0.70;99.90
19586;DHT22;9939;49.246;9.106;2023-01-29T17:10:55;-0.70;99.90
19586;DHT22;9939;49.246;9.106;2023-01-29T17:13:38;-0.80;99.90
19586;DHT22;9939;49.246;9.106;2023-01-29T17:18:45;-0.80;99.90
19586;DHT22;9939;49.246;9.106;2023-01-29T17:21:12;-0.80;99.90
19586;DHT22;9939;49.246;9.106;2023-01-29T17:23:39;-0.90;99.90
19586;DHT22;9939;49.246;9.106;2023-01-29T17:26:06;-0.90;99.90
19586;DHT22;9939;49.246;9.106;2023-01-29T17:28:34;-0.80;99.90
19586;DHT22;9939;49.246;9.106;2023-01-29T17:31:01;-0.90;99.90
19586;DHT22;9939;49.246;9.106;2023-01-29T17:33:33;-1.00;99.90
19586;DHT22;9939;49.246;9.106;2023-01-29T17:36:00;-1.00;99.90
19586;DHT22;9939;49.246;9.106;2023-01-29T17:38:27;-1.00;99.90
19586;DHT22;9939;49.246;9.106;2023-01-29T17:41:04;-0.90;99.90
19586;DHT22;9939;49.246;9.106;2023-01-29T17:43:33;-1.00;99.90
19586;DHT22;9939;49.246;9.106;2023-01-29T17:45:59;-1.10;99.90
19586;DHT22;9939;49.246;9.106;2023-01-29T17:48:27;-1.20;99.90
19586;DHT22;9939;49.246;9.106;2023-01-29T17:50:56;-1.30;99.90
19586;DHT22;9939;49.246;9.106;2023-01-29T17:53:23;-1.30;99.90
19586;DHT22;9939;49.246;9.106;2023-01-29T17:56:01;-1.20;99.90
19586;DHT22;9939;49.246;9.106;2023-01-29T17:58:28;-1.20;99.90
19586;DHT22;9939;49.246;9.106;2023-01-29T18:00:55;-1.20;99.90
19586;DHT22;9939;49.246;9.106;2023-01-29T18:03:22;-1.20;99.90
19586;DHT22;9939;49.246;9.106;2023-01-29T18:05:49;-1.20;99.90
19586;DHT22;9939;49.246;9.106;2023-01-29T18:08:27;-0.90;99.90
19586;DHT22;9939;49.246;9.106;2023-01-29T18:10:55;-0.90;99.90
19586;DHT22;9939;49.246;9.106;2023-01-29T18:13:22;-0.80;99.90
19586;DHT22;9939;49.246;9.106;2023-01-29T18:15:49;-0.80;99.90
19586;DHT22;9939;49.246;9.106;2023-01-29T18:18:21;-1.00;99.90
19586;DHT22;9939;49.246;9.106;2023-01-29T18:20:48;-1.00;99.90
19586;DHT22;9939;49.246;9.106;2023-01-29T18:23:15;-1.20;99.90
19586;DHT22;9939;49.246;9.106;2023-01-29T18:25:42;-1.30;99.90
19586;DHT22;9939;49.246;9.106;2023-01-29T18:28:12;-1.60;99.90